sim
Sign-in with your pilot id or email,
or register
Callsign
Passwort

Schedule Details

Flight Number: OEO5936
Departure: Port Bouet Airport (DIAP) at 06:35
Arrival: Munich Airport (EDDM) at 13:25

Weather Information
Getting current METAR information for DIAP 231030Z 21009KT 190V250 8000 SCT012 27/24 Q1015 TEMPO BKN012
Getting current METAR information for EDDM 231020Z 26010KT 9000 -SHRA FEW007 FEW015TCU BKN032 15/14 Q1010 NOSIG

Schedule Frequency

Route Map